createdAt,value
2018-11-27T00:01:41.221Z,25.77
2018-11-27T00:04:09.385Z,24.93
2018-11-27T00:06:37.973Z,27.10
2018-11-27T00:09:07.345Z,28.03
2018-11-27T00:11:35.540Z,28.17
2018-11-27T00:14:03.840Z,26.83
2018-11-27T00:16:31.944Z,28.43
2018-11-27T00:19:00.063Z,30.17
2018-11-27T00:21:28.255Z,27.17
2018-11-27T00:23:56.355Z,29.40
2018-11-27T00:26:24.468Z,27.00
2018-11-27T00:28:52.634Z,29.47
2018-11-27T00:31:20.744Z,28.90
2018-11-27T00:33:49.203Z,26.37
2018-11-27T00:36:17.305Z,27.13
2018-11-27T00:38:45.415Z,27.13
2018-11-27T00:41:13.531Z,28.23
2018-11-27T00:43:41.695Z,27.03
2018-11-27T00:46:09.786Z,27.70
2018-11-27T00:48:37.918Z,27.23
2018-11-27T00:51:06.166Z,27.80
2018-11-27T00:53:34.259Z,28.23
2018-11-27T00:56:02.523Z,28.37
2018-11-27T00:58:30.652Z,27.27
2018-11-27T01:00:58.768Z,28.50
2018-11-27T01:03:26.891Z,26.50
2018-11-27T01:05:54.988Z,29.00
2018-11-27T01:08:23.185Z,27.47
2018-11-27T01:10:51.275Z,26.43
2018-11-27T01:13:19.409Z,26.97
2018-11-27T01:15:47.472Z,27.03
2018-11-27T01:18:15.571Z,27.60
2018-11-27T01:20:43.690Z,27.33
2018-11-27T01:23:11.864Z,26.73
2018-11-27T01:25:39.934Z,26.97
2018-11-27T01:28:08.047Z,27.23
2018-11-27T01:30:36.186Z,27.63
2018-11-27T01:33:04.290Z,25.47
2018-11-27T01:35:32.715Z,25.60
2018-11-27T01:38:00.911Z,27.17
2018-11-27T01:40:29.018Z,27.30
2018-11-27T01:42:57.128Z,26.70
2018-11-27T01:45:25.299Z,26.33
2018-11-27T01:47:53.561Z,25.93
2018-11-27T01:50:21.676Z,27.40
2018-11-27T01:52:49.810Z,26.67
2018-11-27T01:55:20.131Z,26.70
2018-11-27T01:57:48.254Z,27.83
2018-11-27T02:00:17.414Z,25.83
2018-11-27T02:02:45.548Z,27.33
2018-11-27T02:05:13.660Z,27.37
2018-11-27T02:07:41.894Z,26.83
2018-11-27T02:10:11.436Z,27.30
2018-11-27T02:12:40.972Z,28.13
2018-11-27T02:15:13.862Z,26.10
2018-11-27T02:17:42.041Z,26.53
2018-11-27T02:20:10.955Z,27.67
2018-11-27T02:22:39.502Z,27.27
2018-11-27T02:25:17.748Z,28.23
2018-11-27T02:27:45.906Z,28.10
2018-11-27T02:30:16.097Z,27.30
2018-11-27T02:32:44.327Z,27.77
2018-11-27T02:35:14.589Z,29.30
2018-11-27T02:37:42.771Z,27.77
2018-11-27T02:40:12.964Z,28.93
2018-11-27T02:42:41.337Z,28.87
2018-11-27T02:45:10.788Z,28.10
2018-11-27T02:47:39.216Z,29.20
2018-11-27T02:50:08.964Z,28.50
2018-11-27T02:52:37.196Z,27.27
2018-11-27T02:55:10.232Z,28.47
2018-11-27T02:57:38.409Z,28.43
2018-11-27T03:00:08.892Z,27.13
2018-11-27T03:02:37.063Z,27.53
2018-11-27T03:05:09.759Z,26.83
2018-11-27T03:07:37.923Z,28.10
2018-11-27T03:10:09.093Z,27.10
2018-11-27T03:12:37.598Z,27.90
2018-11-27T03:15:09.375Z,27.33
2018-11-27T03:17:37.508Z,28.80
2018-11-27T03:20:07.731Z,28.80
2018-11-27T03:22:35.854Z,27.10
2018-11-27T03:25:05.073Z,26.33
2018-11-27T03:27:33.203Z,27.13
2018-11-27T03:30:01.423Z,27.33
2018-11-27T03:32:29.521Z,28.30
2018-11-27T03:34:57.639Z,27.03
2018-11-27T03:37:25.747Z,29.73
2018-11-27T03:39:53.880Z,27.27
2018-11-27T03:42:21.971Z,27.80
2018-11-27T03:44:50.104Z,27.70
2018-11-27T03:47:18.217Z,26.27
2018-11-27T03:49:46.363Z,28.43
2018-11-27T03:52:14.471Z,27.63
2018-11-27T03:54:42.609Z,28.83
2018-11-27T03:57:10.759Z,28.03
2018-11-27T03:59:39.149Z,29.27
2018-11-27T04:02:07.274Z,27.00
2018-11-27T04:04:35.428Z,27.30
2018-11-27T04:07:04.084Z,26.40
2018-11-27T04:09:32.223Z,28.20
2018-11-27T04:12:00.523Z,27.30
2018-11-27T04:14:28.651Z,28.93
2018-11-27T04:16:56.904Z,28.17
2018-11-27T04:19:25.037Z,27.20
2018-11-27T04:21:53.194Z,28.87
2018-11-27T04:24:21.486Z,28.80
2018-11-27T04:26:49.625Z,26.27
2018-11-27T04:29:17.875Z,26.50
2018-11-27T04:31:45.991Z,28.37
2018-11-27T04:34:14.121Z,25.97
2018-11-27T04:36:42.344Z,28.00
2018-11-27T04:39:10.520Z,27.47
2018-11-27T04:41:38.667Z,26.53
2018-11-27T04:44:06.737Z,27.00
2018-11-27T04:46:34.851Z,27.37
2018-11-27T04:49:02.914Z,27.77
2018-11-27T04:51:31.049Z,27.03
2018-11-27T04:53:59.186Z,26.97
2018-11-27T04:56:27.341Z,28.10
2018-11-27T04:58:55.428Z,28.27
2018-11-27T05:01:23.579Z,27.33
2018-11-27T05:03:51.750Z,28.43
2018-11-27T05:06:19.929Z,27.97
2018-11-27T05:08:48.501Z,29.00
2018-11-27T05:11:16.659Z,28.10
2018-11-27T05:13:44.799Z,28.60
2018-11-27T05:16:12.979Z,27.60
2018-11-27T05:18:41.389Z,28.03
2018-11-27T05:21:09.498Z,27.07
2018-11-27T05:23:37.595Z,28.87
2018-11-27T05:26:06.147Z,26.77
2018-11-27T05:28:34.302Z,28.57
2018-11-27T05:31:02.391Z,26.63
2018-11-27T05:33:30.697Z,26.23
2018-11-27T05:35:58.785Z,27.50
2018-11-27T05:38:26.996Z,26.90
2018-11-27T05:40:55.119Z,27.07
2018-11-27T05:43:23.324Z,27.03
2018-11-27T05:45:51.448Z,27.37
2018-11-27T05:48:19.640Z,27.47
2018-11-27T05:50:47.875Z,26.73
2018-11-27T05:53:16.030Z,27.20
2018-11-27T05:55:44.195Z,26.60
2018-11-27T05:58:12.372Z,28.50
2018-11-27T06:00:40.763Z,27.67
2018-11-27T06:03:09.779Z,28.03
2018-11-27T06:05:37.921Z,28.37
2018-11-27T06:08:06.471Z,27.57
2018-11-27T06:10:34.836Z,27.43
2018-11-27T06:13:03.125Z,28.03
2018-11-27T06:15:31.262Z,27.13
2018-11-27T06:18:00.688Z,27.53
2018-11-27T06:20:29.073Z,26.40
2018-11-27T06:22:57.246Z,27.77
2018-11-27T06:25:26.548Z,28.60
2018-11-27T06:28:00.744Z,27.80
2018-11-27T06:30:29.768Z,28.70
2018-11-27T06:32:57.921Z,29.50
2018-11-27T06:35:45.372Z,26.73
2018-11-27T06:38:13.497Z,27.03
2018-11-27T06:40:42.163Z,26.77
2018-11-27T06:43:11.189Z,27.87
2018-11-27T06:45:40.578Z,27.07
2018-11-27T06:48:08.921Z,28.67
2018-11-27T06:50:37.087Z,26.27
2018-11-27T06:53:06.257Z,26.67
2018-11-27T06:55:34.552Z,26.27
2018-11-27T06:58:03.015Z,25.90
2018-11-27T07:00:31.108Z,27.27
2018-11-27T07:02:59.438Z,26.40
2018-11-27T07:05:27.573Z,25.37
2018-11-27T07:07:55.773Z,26.43
2018-11-27T07:10:27.446Z,28.23
2018-11-27T07:12:57.427Z,27.63
2018-11-27T07:15:25.528Z,26.00
2018-11-27T07:17:53.740Z,26.30
2018-11-27T07:20:21.886Z,27.87
2018-11-27T07:22:50.032Z,25.97
2018-11-27T07:25:18.118Z,27.57
2018-11-27T07:27:47.626Z,27.43
2018-11-27T07:30:17.891Z,26.23
2018-11-27T07:32:46.170Z,26.60
2018-11-27T07:35:15.073Z,26.67
2018-11-27T07:37:43.439Z,26.57
2018-11-27T07:40:14.705Z,25.70
2018-11-27T07:42:42.839Z,25.93
2018-11-27T07:45:16.417Z,25.47
2018-11-27T07:47:44.634Z,25.50
2018-11-27T07:50:13.509Z,26.47
2018-11-27T07:52:41.836Z,25.80
2018-11-27T07:55:11.944Z,25.27
2018-11-27T07:57:40.153Z,25.30
2018-11-27T08:00:11.595Z,25.23
2018-11-27T08:02:39.940Z,25.40
2018-11-27T08:05:10.341Z,26.03
2018-11-27T08:07:39.193Z,23.83
2018-11-27T08:10:14.693Z,25.60
2018-11-27T08:12:42.911Z,25.43
2018-11-27T08:15:13.867Z,26.33
2018-11-27T08:17:42.247Z,24.87
2018-11-27T08:20:12.152Z,24.20
2018-11-27T08:22:40.280Z,24.37
2018-11-27T08:25:10.103Z,23.60
2018-11-27T08:27:38.287Z,23.47
2018-11-27T08:30:11.824Z,21.97
2018-11-27T08:32:39.954Z,23.83
2018-11-27T08:35:11.585Z,23.60
2018-11-27T08:37:40.424Z,22.47
2018-11-27T08:40:09.982Z,23.23
2018-11-27T08:42:38.205Z,22.53
2018-11-27T08:45:10.202Z,24.10
2018-11-27T08:47:38.432Z,22.83
2018-11-27T08:50:14.965Z,22.00
2018-11-27T08:52:46.828Z,22.37
2018-11-27T08:55:14.052Z,22.47
2018-11-27T08:57:43.620Z,22.37
2018-11-27T09:00:13.191Z,21.90
2018-11-27T09:02:41.509Z,22.93
2018-11-27T09:05:10.516Z,23.30
2018-11-27T09:07:38.651Z,22.80
2018-11-27T09:10:10.399Z,23.07
2018-11-27T09:12:38.581Z,23.30
2018-11-27T09:15:08.353Z,23.93
2018-11-27T09:17:36.491Z,22.37
2018-11-27T09:20:07.487Z,22.27
2018-11-27T09:22:35.666Z,22.43
2018-11-27T09:25:05.457Z,20.60
2018-11-27T09:27:33.604Z,20.67
2018-11-27T09:30:01.853Z,21.07
2018-11-27T09:32:30.084Z,20.57
2018-11-27T09:34:58.216Z,18.97
2018-11-27T09:37:26.420Z,18.20
2018-11-27T09:39:54.583Z,19.73
2018-11-27T09:42:22.695Z,22.80
2018-11-27T09:44:50.820Z,20.33
2018-11-27T09:47:18.932Z,20.63
2018-11-27T09:49:47.035Z,20.37
2018-11-27T09:52:15.482Z,18.13
2018-11-27T09:54:43.599Z,20.37
2018-11-27T09:57:11.674Z,20.53
2018-11-27T09:59:39.762Z,19.33
2018-11-27T10:02:07.839Z,21.07
2018-11-27T10:04:35.924Z,20.53
2018-11-27T10:07:04.806Z,18.57
2018-11-27T10:09:32.322Z,16.50
2018-11-27T10:12:00.801Z,14.20
2018-11-27T10:14:28.964Z,16.87
2018-11-27T10:16:57.120Z,16.70
2018-11-27T10:19:27.027Z,15.90
2018-11-27T10:21:53.560Z,15.27
2018-11-27T10:24:21.775Z,16.23
2018-11-27T10:26:49.883Z,14.83
2018-11-27T10:29:18.785Z,14.77
2018-11-27T10:31:46.925Z,15.70
2018-11-27T10:34:15.024Z,14.70
2018-11-27T10:36:43.593Z,15.27
2018-11-27T10:39:11.294Z,16.20
2018-11-27T10:41:39.414Z,14.97
2018-11-27T10:44:07.520Z,14.03
2018-11-27T10:46:35.623Z,14.33
2018-11-27T10:49:03.760Z,15.10
2018-11-27T10:51:38.350Z,13.33
2018-11-27T10:54:06.450Z,12.70
2018-11-27T10:56:34.534Z,12.43
2018-11-27T10:59:02.705Z,13.10
2018-11-27T11:01:30.782Z,13.73
2018-11-27T11:03:58.911Z,14.03
2018-11-27T11:06:27.018Z,13.10
2018-11-27T11:08:55.208Z,13.10
2018-11-27T11:11:23.314Z,12.90
2018-11-27T11:13:51.444Z,12.73
2018-11-27T11:16:19.594Z,13.77
2018-11-27T11:18:47.690Z,12.40
2018-11-27T11:21:15.850Z,11.80
2018-11-27T11:23:43.972Z,12.77
2018-11-27T11:26:12.100Z,13.07
2018-11-27T11:28:40.228Z,14.27
2018-11-27T11:31:08.372Z,13.80
2018-11-27T11:33:36.592Z,14.17
2018-11-27T11:36:05.159Z,13.97
2018-11-27T11:38:33.303Z,13.70
2018-11-27T11:41:01.494Z,13.40
2018-11-27T11:43:29.599Z,12.70
2018-11-27T11:45:57.870Z,14.23
2018-11-27T11:48:26.182Z,14.07
2018-11-27T11:50:54.308Z,12.83
2018-11-27T11:53:22.451Z,12.90
2018-11-27T11:55:50.576Z,13.63
2018-11-27T11:58:18.710Z,12.90
2018-11-27T12:00:47.740Z,12.70
2018-11-27T12:03:15.840Z,14.13
2018-11-27T12:05:43.967Z,14.30
2018-11-27T12:08:12.094Z,13.67
2018-11-27T12:10:40.261Z,12.73
2018-11-27T12:13:09.564Z,13.30
2018-11-27T12:15:37.727Z,13.23
2018-11-27T12:18:06.750Z,13.47
2018-11-27T12:20:34.921Z,11.23
2018-11-27T12:23:03.760Z,11.63
2018-11-27T12:25:31.879Z,11.60
2018-11-27T12:28:00.066Z,11.97
2018-11-27T12:30:28.226Z,12.73
2018-11-27T12:32:56.375Z,12.87
2018-11-27T12:35:24.513Z,10.87
2018-11-27T12:37:52.703Z,10.40
2018-11-27T12:40:24.580Z,10.27
2018-11-27T12:42:52.779Z,11.43
2018-11-27T12:45:22.173Z,10.50
2018-11-27T12:47:50.617Z,9.43
2018-11-27T12:50:21.055Z,10.70
2018-11-27T12:52:49.435Z,11.07
2018-11-27T12:55:20.955Z,10.90
2018-11-27T12:57:48.109Z,11.47
2018-11-27T13:00:19.254Z,12.23
2018-11-27T13:02:47.694Z,10.93
2018-11-27T13:05:17.548Z,12.13
2018-11-27T13:07:45.669Z,13.30
2018-11-27T13:10:14.691Z,11.33
2018-11-27T13:12:43.793Z,11.90
2018-11-27T13:15:16.863Z,12.33
2018-11-27T13:17:45.491Z,11.60
2018-11-27T13:20:14.960Z,12.17
2018-11-27T13:22:43.565Z,11.23
2018-11-27T13:25:15.009Z,11.53
2018-11-27T13:27:43.292Z,12.67
2018-11-27T13:30:19.022Z,11.83
2018-11-27T13:32:48.970Z,12.20
2018-11-27T13:35:17.127Z,12.13
2018-11-27T13:37:45.357Z,13.10
2018-11-27T13:40:13.884Z,12.50
2018-11-27T13:42:42.077Z,11.97
2018-11-27T13:45:13.397Z,11.10
2018-11-27T13:47:42.128Z,13.70
2018-11-27T13:50:13.187Z,12.20
2018-11-27T13:52:41.358Z,13.33
2018-11-27T13:55:14.878Z,15.40
2018-11-27T13:57:43.195Z,16.03
2018-11-27T14:00:12.494Z,14.40
2018-11-27T14:02:42.087Z,15.13
2018-11-27T14:05:12.362Z,14.60
2018-11-27T14:07:40.479Z,13.40
2018-11-27T14:10:10.030Z,15.03
2018-11-27T14:12:38.214Z,14.90
2018-11-27T14:15:12.411Z,13.53
2018-11-27T14:17:40.876Z,14.40
2018-11-27T14:20:09.098Z,14.77
2018-11-27T14:22:37.756Z,14.00
2018-11-27T14:25:07.973Z,14.53
2018-11-27T14:27:37.270Z,15.50
2018-11-27T14:30:15.184Z,14.17
2018-11-27T14:32:43.688Z,15.13
2018-11-27T14:35:12.768Z,14.97
2018-11-27T14:37:41.083Z,15.40
2018-11-27T14:40:14.631Z,15.50
2018-11-27T14:45:20.461Z,13.80
2018-11-27T14:48:03.347Z,13.97
2018-11-27T14:50:31.656Z,15.03
2018-11-27T14:53:00.762Z,14.00
2018-11-27T14:55:30.606Z,16.13
2018-11-27T14:57:58.711Z,13.20
2018-11-27T15:00:26.939Z,13.30
2018-11-27T15:02:55.311Z,14.30
2018-11-27T15:05:30.758Z,13.20
2018-11-27T15:07:58.961Z,13.73
2018-11-27T15:10:27.225Z,13.43
2018-11-27T15:12:55.410Z,13.30
2018-11-27T15:15:23.663Z,14.10
2018-11-27T15:17:51.873Z,14.47
2018-11-27T15:20:21.128Z,13.17
2018-11-27T15:22:49.332Z,13.97
2018-11-27T15:25:17.537Z,13.93
2018-11-27T15:27:46.057Z,13.47
2018-11-27T15:30:23.046Z,13.47
2018-11-27T15:32:52.438Z,13.03
2018-11-27T15:35:20.711Z,13.50
2018-11-27T15:37:48.881Z,12.60
2018-11-27T15:40:18.365Z,13.50
2018-11-27T15:42:46.457Z,14.37
2018-11-27T15:45:22.546Z,13.33
2018-11-27T15:47:50.806Z,13.43
2018-11-27T15:50:19.083Z,15.67
2018-11-27T15:52:47.438Z,14.60
2018-11-27T15:55:17.726Z,12.87
2018-11-27T15:57:46.776Z,12.70
2018-11-27T16:00:16.055Z,13.17
2018-11-27T16:02:44.567Z,13.43
2018-11-27T16:05:13.313Z,13.23
2018-11-27T16:07:41.549Z,13.87
2018-11-27T16:10:11.819Z,14.33
2018-11-27T16:12:40.018Z,14.67
2018-11-27T16:15:13.388Z,13.63
2018-11-27T16:17:41.687Z,14.53
2018-11-27T16:20:11.336Z,14.93
2018-11-27T16:22:40.352Z,14.13
2018-11-27T16:25:11.293Z,14.90
2018-11-27T16:27:39.615Z,14.30
2018-11-27T16:30:13.215Z,14.63
2018-11-27T16:32:41.393Z,14.87
2018-11-27T16:35:10.770Z,15.10
2018-11-27T16:37:39.589Z,15.20
2018-11-27T16:40:19.530Z,14.47
2018-11-27T16:42:47.871Z,14.83
2018-11-27T16:45:19.110Z,14.10
2018-11-27T16:47:47.290Z,14.80
2018-11-27T16:50:16.178Z,14.27
2018-11-27T16:52:44.756Z,14.80
2018-11-27T16:55:15.103Z,14.83
2018-11-27T16:57:49.937Z,15.00
2018-11-27T17:00:25.750Z,15.53
2018-11-27T17:02:55.304Z,15.70
2018-11-27T17:05:23.850Z,14.53
2018-11-27T17:07:52.059Z,15.37
2018-11-27T17:10:20.801Z,13.50
2018-11-27T17:12:52.474Z,13.63
2018-11-27T17:15:21.771Z,14.40
2018-11-27T17:17:50.286Z,14.40
2018-11-27T17:20:23.255Z,13.80
2018-11-27T17:22:52.022Z,14.60
2018-11-27T17:25:20.184Z,14.60
2018-11-27T17:27:48.975Z,15.23
2018-11-27T17:30:21.026Z,13.87
2018-11-27T17:32:49.420Z,16.10
2018-11-27T17:35:17.833Z,14.40
2018-11-27T17:37:45.959Z,13.80
2018-11-27T17:40:14.277Z,15.37
2018-11-27T17:42:42.706Z,14.50
2018-11-27T17:45:12.330Z,14.20
2018-11-27T17:47:40.791Z,14.70
2018-11-27T17:50:11.596Z,14.43
2018-11-27T17:52:40.430Z,15.03
2018-11-27T17:55:09.806Z,15.47
2018-11-27T17:57:38.176Z,14.43
2018-11-27T18:00:15.957Z,15.27
2018-11-27T18:02:48.786Z,14.40
2018-11-27T18:05:16.987Z,15.10
2018-11-27T18:07:45.347Z,16.33
2018-11-27T18:10:14.345Z,17.97
2018-11-27T18:12:43.308Z,15.40
2018-11-27T18:15:14.814Z,17.83
2018-11-27T18:17:44.942Z,16.00
2018-11-27T18:20:13.126Z,14.40
2018-11-27T18:22:41.486Z,16.17
2018-11-27T18:25:14.740Z,14.27
2018-11-27T18:27:44.780Z,14.40
2018-11-27T18:30:14.891Z,13.47
2018-11-27T18:32:43.145Z,12.97
2018-11-27T18:35:13.411Z,14.60
2018-11-27T18:37:41.682Z,13.37
2018-11-27T18:40:11.850Z,13.60
2018-11-27T18:42:40.398Z,14.37
2018-11-27T18:45:39.812Z,13.67
2018-11-27T18:48:08.039Z,13.47
2018-11-27T18:50:36.200Z,12.40
2018-11-27T18:53:04.592Z,13.17
2018-11-27T18:55:32.889Z,10.67
2018-11-27T18:58:01.134Z,10.93
2018-11-27T19:00:30.728Z,10.77
2018-11-27T19:02:59.012Z,11.03
2018-11-27T19:05:27.186Z,12.27
2018-11-27T19:07:55.441Z,12.37
2018-11-27T19:10:26.740Z,12.23
2018-11-27T19:12:55.334Z,12.27
2018-11-27T19:15:40.452Z,12.53
2018-11-27T19:18:26.836Z,12.00
2018-11-27T19:20:55.062Z,12.27
2018-11-27T19:23:24.506Z,11.67
2018-11-27T19:25:53.035Z,12.43
2018-11-27T19:28:21.220Z,13.23
2018-11-27T19:30:49.942Z,12.83
2018-11-27T19:33:18.077Z,12.80
2018-11-27T19:35:46.357Z,13.43
2018-11-27T19:38:15.752Z,13.07
2018-11-27T19:40:43.925Z,13.37
2018-11-27T19:43:12.047Z,13.43
2018-11-27T19:45:40.338Z,13.23
2018-11-27T19:48:09.615Z,13.67
2018-11-27T19:50:37.902Z,13.47
2018-11-27T19:53:11.987Z,13.73
2018-11-27T19:55:36.908Z,14.57
2018-11-27T19:58:06.218Z,13.00
2018-11-27T20:00:34.986Z,14.10
2018-11-27T20:03:03.521Z,16.27
2018-11-27T20:05:31.688Z,16.13
2018-11-27T20:07:59.904Z,15.50
2018-11-27T20:10:28.573Z,14.30
2018-11-27T20:12:56.729Z,14.60
2018-11-27T20:15:25.830Z,14.53
2018-11-27T20:17:54.976Z,16.23
2018-11-27T20:20:24.620Z,14.30
2018-11-27T20:22:53.741Z,17.03
2018-11-27T20:25:22.441Z,15.30
2018-11-27T20:27:50.805Z,15.10
2018-11-27T20:30:21.769Z,14.53
2018-11-27T20:32:53.112Z,13.17
2018-11-27T20:35:21.367Z,13.63
2018-11-27T20:37:50.747Z,14.57
2018-11-27T20:40:19.494Z,14.97
2018-11-27T20:42:48.028Z,15.03
2018-11-27T20:45:19.563Z,15.70
2018-11-27T20:47:46.968Z,15.97
2018-11-27T20:50:16.401Z,16.17
2018-11-27T20:52:44.648Z,15.43
2018-11-27T20:55:13.200Z,15.17
2018-11-27T20:57:43.235Z,15.37
2018-11-27T21:00:17.033Z,15.03
2018-11-27T21:02:45.505Z,13.17
2018-11-27T21:05:13.754Z,16.27
2018-11-27T21:07:42.348Z,14.23
2018-11-27T21:10:11.771Z,15.03
2018-11-27T21:12:40.688Z,16.00
2018-11-27T21:15:11.181Z,13.40
2018-11-27T21:17:39.322Z,15.80
2018-11-27T21:20:08.899Z,15.20
2018-11-27T21:22:37.470Z,14.03
2018-11-27T21:25:14.865Z,13.23
2018-11-27T21:27:45.183Z,16.33
2018-11-27T21:30:14.600Z,14.73
2018-11-27T21:32:43.155Z,15.83
2018-11-27T21:35:12.366Z,16.43
2018-11-27T21:37:40.646Z,15.33
2018-11-27T21:40:10.955Z,14.57
2018-11-27T21:42:39.367Z,17.00
2018-11-27T21:45:16.441Z,13.60
2018-11-27T21:47:45.903Z,14.67
2018-11-27T21:50:16.307Z,13.57
2018-11-27T21:52:44.574Z,15.50
2018-11-27T21:55:13.682Z,17.03
2018-11-27T21:57:42.186Z,14.57
2018-11-27T22:00:18.283Z,16.07
2018-11-27T22:02:46.451Z,16.03
2018-11-27T22:05:15.080Z,15.37
2018-11-27T22:07:43.779Z,14.17
2018-11-27T22:10:14.217Z,14.80
2018-11-27T22:12:43.716Z,15.17
2018-11-27T22:15:15.496Z,15.50
2018-11-27T22:17:43.784Z,13.33
2018-11-27T22:20:12.010Z,16.43
2018-11-27T22:22:40.221Z,15.77
2018-11-27T22:25:13.537Z,15.40
2018-11-27T22:27:41.954Z,16.50
2018-11-27T22:30:12.221Z,16.87
2018-11-27T22:32:42.459Z,15.77
2018-11-27T22:35:11.150Z,15.37
2018-11-27T22:37:39.332Z,16.20
2018-11-27T22:40:09.282Z,16.13
2018-11-27T22:42:37.551Z,16.00
2018-11-27T22:45:08.634Z,16.20
2018-11-27T22:47:37.143Z,14.80
2018-11-27T22:50:10.286Z,16.00
2018-11-27T22:52:38.520Z,16.90
2018-11-27T22:55:07.158Z,16.10
2018-11-27T22:57:35.402Z,14.20
2018-11-27T23:00:07.253Z,14.63
2018-11-27T23:02:35.364Z,15.43
2018-11-27T23:05:04.201Z,13.63
2018-11-27T23:07:32.314Z,15.00
2018-11-27T23:10:00.462Z,16.70
2018-11-27T23:12:28.643Z,15.47
2018-11-27T23:14:56.775Z,16.67
2018-11-27T23:17:24.893Z,15.57
2018-11-27T23:19:53.020Z,15.67
2018-11-27T23:22:21.406Z,14.07
2018-11-27T23:24:49.603Z,15.30
2018-11-27T23:27:17.931Z,14.70
2018-11-27T23:29:46.539Z,13.30
2018-11-27T23:32:14.712Z,13.83
2018-11-27T23:34:42.819Z,15.50
2018-11-27T23:37:10.955Z,13.80
2018-11-27T23:39:39.121Z,15.27
2018-11-27T23:42:07.286Z,12.70
2018-11-27T23:44:35.373Z,14.70
2018-11-27T23:47:04.162Z,16.27
2018-11-27T23:49:32.275Z,16.30
2018-11-27T23:52:00.397Z,18.13
2018-11-27T23:54:28.468Z,13.53
2018-11-27T23:56:56.587Z,16.17
2018-11-27T23:59:24.775Z,15.30
